Time;durP1;ratioP1;P1;durP2;ratioP2;P2;SDS_P1;SDS_P2;PMS_P1;PMS_P2;Temp;Humidity;BMP_temperature;BMP_pressure;BME280_temperature;BME280_humidity;BME280_pressure;Samples;Min_cycle;Max_cycle;Signal;HPM_P1;HPM_P2
2022/08/15 00:00:17;;;;;;;2.33;1.52;;;15.20;99.90;;;;;;5115579;28;20016;-76
2022/08/15 00:02:45;;;;;;;0.73;0.60;;;15.20;99.90;;;;;;5114502;28;20028;-76
2022/08/15 00:05:14;;;;;;;3.08;0.57;;;15.10;99.90;;;;;;5115461;28;20019;-77
2022/08/15 00:07:40;;;;;;;0.77;0.73;;;15.00;99.90;;;;;;5097142;28;20019;-76
2022/08/15 00:10:08;;;;;;;1.25;1.02;;;14.90;99.90;;;;;;5097311;28;20111;-77
2022/08/15 00:12:35;;;;;;;0.38;0.38;;;14.80;99.90;;;;;;5115364;28;20038;-77
2022/08/15 00:15:03;;;;;;;0.55;0.55;;;14.80;99.90;;;;;;5115372;28;20016;-77
2022/08/15 00:17:29;;;;;;;0.40;0.40;;;14.80;99.90;;;;;;5097221;28;20031;-76
2022/08/15 00:19:55;;;;;;;0.82;0.80;;;14.80;99.90;;;;;;5115192;28;20437;-77
2022/08/15 00:22:20;;;;;;;0.22;0.22;;;14.80;99.90;;;;;;5115400;28;20023;-76
2022/08/15 00:24:48;;;;;;;0.47;0.47;;;14.80;99.90;;;;;;5115013;28;20491;-77
2022/08/15 00:27:15;;;;;;;3.45;1.08;;;14.80;99.90;;;;;;5114800;28;20016;-77
2022/08/15 00:29:41;;;;;;;1.30;1.17;;;14.70;99.90;;;;;;5114861;28;20105;-76
2022/08/15 00:32:19;;;;;;;2.13;0.68;;;14.80;99.90;;;;;;5114965;28;20039;-76
2022/08/15 00:34:45;;;;;;;1.38;0.40;;;14.80;99.90;;;;;;5096703;28;20027;-76
2022/08/15 00:37:11;;;;;;;0.50;0.50;;;14.70;99.90;;;;;;5114978;28;20024;-76
2022/08/15 00:39:37;;;;;;;0.73;0.30;;;14.70;99.90;;;;;;5115055;28;20026;-76
2022/08/15 00:42:06;;;;;;;2.20;0.55;;;14.80;99.90;;;;;;5114870;28;20023;-76
2022/08/15 00:44:40;;;;;;;2.10;0.80;;;14.80;99.90;;;;;;5114784;28;20027;-76
2022/08/15 00:47:10;;;;;;;0.35;0.35;;;14.70;99.90;;;;;;5096446;28;20305;-76
2022/08/15 00:49:36;;;;;;;;;;;14.70;99.90;;;;;;5096958;28;20023;-76
2022/08/15 00:52:09;;;;;;;0.45;0.45;;;14.70;99.90;;;;;;5114733;28;19911;-76
2022/08/15 00:54:47;;;;;;;4.68;0.45;;;14.70;99.90;;;;;;5114593;28;20051;-77
2022/08/15 00:57:25;;;;;;;0.32;0.32;;;14.70;99.90;;;;;;5096255;28;20020;-76
2022/08/15 00:59:57;;;;;;;0.60;0.38;;;14.70;99.90;;;;;;5114667;28;20030;-76
2022/08/15 01:02:29;;;;;;;5.93;0.77;;;14.70;99.90;;;;;;5114259;28;20410;-76
2022/08/15 01:04:56;;;;;;;0.93;0.50;;;14.70;99.90;;;;;;5095890;28;20114;-76
2022/08/15 01:07:23;;;;;;;0.52;0.52;;;14.70;99.90;;;;;;5113951;28;20402;-78
2022/08/15 01:09:49;;;;;;;0.47;0.40;;;14.70;99.90;;;;;;5114213;28;20030;-77
2022/08/15 01:12:19;;;;;;;1.08;0.98;;;14.80;99.90;;;;;;5114426;28;20035;-76
2022/08/15 01:14:51;;;;;;;;;;;14.90;99.90;;;;;;5114637;28;20028;-76
2022/08/15 01:17:17;;;;;;;1.05;0.60;;;14.90;99.90;;;;;;5095936;28;20249;-77
2022/08/15 01:19:51;;;;;;;0.50;0.50;;;14.80;99.90;;;;;;5113927;28;20503;-78
2022/08/15 01:23:01;;;;;;;0.63;0.63;;;14.80;99.90;;;;;;5113997;28;20387;-77
2022/08/15 01:25:46;;;;;;;0.20;0.20;;;14.80;99.90;;;;;;5031318;28;20061;-78
2022/08/15 01:28:36;;;;;;;0.45;0.43;;;14.90;99.90;;;;;;5031389;28;20474;-76
2022/08/15 01:31:12;;;;;;;0.85;0.85;;;14.90;99.90;;;;;;5097857;28;20046;-77
2022/08/15 01:33:45;;;;;;;0.30;0.30;;;14.90;99.90;;;;;;5095468;28;20043;-77
2022/08/15 01:36:11;;;;;;;0.82;0.82;;;15.00;99.90;;;;;;5113768;28;20015;-77
2022/08/15 01:38:41;;;;;;;1.48;0.70;;;15.00;99.90;;;;;;5113876;28;20027;-77
2022/08/15 01:41:27;;;;;;;0.50;0.50;;;15.00;99.90;;;;;;5095786;28;20499;-77
2022/08/15 01:44:19;;;;;;;0.60;0.38;;;15.10;99.90;;;;;;5099515;28;20051;-77
2022/08/15 01:47:02;;;;;;;1.10;1.08;;;15.20;99.90;;;;;;5113892;28;20495;-77
2022/08/15 01:49:39;;;;;;;2.95;0.50;;;15.20;99.90;;;;;;5095628;28;20468;-77
2022/08/15 01:52:06;;;;;;;2.67;0.90;;;15.30;99.90;;;;;;5113841;28;20024;-77
2022/08/15 01:54:37;;;;;;;0.60;0.57;;;15.30;99.90;;;;;;5095539;28;20548;-77
2022/08/15 01:57:05;;;;;;;0.75;0.60;;;15.30;99.90;;;;;;5095777;28;20071;-77
2022/08/15 01:59:31;;;;;;;0.70;0.70;;;15.40;99.90;;;;;;5114092;28;20103;-77
2022/08/15 02:02:02;;;;;;;0.45;0.45;;;15.30;99.90;;;;;;5113946;28;20533;-76
2022/08/15 02:04:34;;;;;;;0.50;0.50;;;15.30;99.90;;;;;;5113714;28;20050;-76
2022/08/15 02:07:03;;;;;;;0.73;0.73;;;15.30;99.90;;;;;;5113749;28;20027;-76
2022/08/15 02:09:29;;;;;;;2.13;0.52;;;15.30;99.90;;;;;;5095428;28;20055;-76
2022/08/15 02:12:00;;;;;;;0.35;0.35;;;15.30;99.90;;;;;;5113426;28;20032;-76
2022/08/15 02:14:27;;;;;;;0.30;0.30;;;15.20;99.90;;;;;;5113795;28;20165;-77
2022/08/15 02:16:53;;;;;;;0.60;0.60;;;15.10;99.90;;;;;;5113416;28;20034;-76
2022/08/15 02:19:18;;;;;;;0.75;0.75;;;15.20;99.90;;;;;;5113624;28;20024;-76
2022/08/15 02:21:47;;;;;;;0.63;0.63;;;15.20;99.90;;;;;;5113383;28;20024;-76
2022/08/15 02:24:20;;;;;;;0.70;0.70;;;15.10;99.90;;;;;;5113736;28;20031;-76
2022/08/15 02:26:47;;;;;;;0.43;0.40;;;15.10;99.90;;;;;;5117452;28;20023;-76
2022/08/15 02:29:13;;;;;;;1.15;0.68;;;15.00;99.90;;;;;;5117287;28;20119;-77
2022/08/15 02:31:40;;;;;;;0.80;0.80;;;15.00;99.90;;;;;;5098878;28;20036;-76
2022/08/15 02:34:06;;;;;;;0.45;0.45;;;15.00;99.90;;;;;;5117399;28;20054;-77
2022/08/15 02:36:35;;;;;;;2.83;0.73;;;14.90;99.90;;;;;;5117179;28;20126;-77
2022/08/15 02:39:04;;;;;;;0.75;0.75;;;14.90;99.90;;;;;;5116967;28;20106;-76
2022/08/15 02:41:33;;;;;;;1.38;1.27;;;14.90;99.90;;;;;;5117180;28;20020;-77
2022/08/15 02:44:00;;;;;;;0.80;0.68;;;15.00;99.90;;;;;;5117174;28;20023;-76
2022/08/15 02:46:29;;;;;;;0.65;0.65;;;15.00;99.90;;;;;;5098732;28;20077;-76
2022/08/15 02:48:55;;;;;;;0.60;0.60;;;15.00;99.90;;;;;;5117183;28;20016;-77
2022/08/15 02:51:22;;;;;;;0.50;0.50;;;15.00;99.90;;;;;;5117221;28;20041;-76
2022/08/15 02:53:50;;;;;;;0.60;0.60;;;15.10;99.90;;;;;;5116901;28;20112;-75
2022/08/15 02:56:18;;;;;;;7.78;2.10;;;15.00;99.90;;;;;;5117026;28;20023;-76
2022/08/15 02:58:45;;;;;;;0.50;0.50;;;14.90;99.90;;;;;;5116942;28;20036;-76
2022/08/15 03:01:12;;;;;;;0.85;0.68;;;14.90;99.90;;;;;;5116992;28;20015;-76
2022/08/15 03:03:39;;;;;;;0.68;0.68;;;14.90;99.90;;;;;;5098356;28;20070;-76
2022/08/15 03:06:10;;;;;;;0.30;0.30;;;14.90;99.90;;;;;;5098249;28;20459;-76
2022/08/15 03:08:38;;;;;;;0.63;0.63;;;14.90;99.90;;;;;;5116370;28;20030;-76
2022/08/15 03:11:04;;;;;;;0.30;0.30;;;14.90;99.90;;;;;;5116750;28;20027;-77
2022/08/15 03:13:31;;;;;;;0.30;0.30;;;15.00;99.90;;;;;;5116690;28;20070;-76
2022/08/15 03:15:58;;;;;;;0.70;0.70;;;15.00;99.90;;;;;;5116583;28;20019;-77
2022/08/15 03:18:26;;;;;;;0.20;0.20;;;15.00;99.90;;;;;;5098435;28;20020;-77
2022/08/15 03:20:52;;;;;;;0.30;0.30;;;15.00;99.90;;;;;;5116467;28;20019;-77
2022/08/15 03:23:20;;;;;;;0.45;0.45;;;15.00;99.90;;;;;;5116245;28;20464;-76
2022/08/15 03:25:50;;;;;;;0.82;0.57;;;15.00;99.90;;;;;;5116093;28;20035;-77
2022/08/15 03:28:16;;;;;;;;;;;15.00;99.90;;;;;;5116393;28;20019;-76
2022/08/15 03:30:42;;;;;;;6.43;0.85;;;15.00;99.90;;;;;;5097701;28;20276;-77
2022/08/15 03:33:08;;;;;;;0.32;0.32;;;15.00;99.90;;;;;;5116191;28;20047;-76
2022/08/15 03:35:41;;;;;;;0.47;0.47;;;15.00;99.90;;;;;;5116388;28;20051;-77
2022/08/15 03:38:07;;;;;;;0.80;0.50;;;15.00;99.90;;;;;;5097932;28;20422;-76
2022/08/15 03:40:34;;;;;;;1.65;1.08;;;15.10;99.90;;;;;;5116147;28;20023;-77
2022/08/15 03:43:04;;;;;;;0.63;0.63;;;15.10;99.90;;;;;;5097742;28;20456;-76
2022/08/15 03:45:30;;;;;;;0.30;0.30;;;15.00;99.90;;;;;;5116009;28;20028;-76
2022/08/15 03:47:56;;;;;;;0.45;0.45;;;15.10;99.90;;;;;;5097522;28;20024;-76
2022/08/15 03:50:22;;;;;;;1.80;0.98;;;15.10;99.90;;;;;;5115832;28;20049;-76
2022/08/15 03:52:54;;;;;;;3.47;1.20;;;15.10;99.90;;;;;;5115728;28;20058;-77
2022/08/15 03:55:22;;;;;;;0.93;0.47;;;15.10;99.90;;;;;;5116061;28;20016;-76
2022/08/15 03:57:49;;;;;;;0.57;0.57;;;15.10;99.90;;;;;;5116295;28;20452;-77
2022/08/15 04:00:17;;;;;;;5.68;1.67;;;15.10;99.90;;;;;;5115709;28;20020;-77
2022/08/15 04:02:44;;;;;;;0.63;0.63;;;15.10;99.90;;;;;;5115427;28;20106;-76
2022/08/15 04:05:09;;;;;;;1.27;0.75;;;15.10;99.90;;;;;;5115432;28;20051;-76
2022/08/15 04:07:36;;;;;;;0.30;0.30;;;15.20;99.90;;;;;;5115534;28;20055;-76
2022/08/15 04:10:09;;;;;;;0.20;0.20;;;15.20;99.90;;;;;;5115503;28;20019;-76
2022/08/15 04:12:38;;;;;;;0.80;0.28;;;15.20;99.90;;;;;;5097417;28;20453;-76
2022/08/15 04:15:08;;;;;;;0.40;0.40;;;15.30;99.90;;;;;;5115495;28;20019;-76
2022/08/15 04:17:34;;;;;;;;;;;15.30;99.90;;;;;;5115843;28;20027;-77
2022/08/15 04:19:59;;;;;;;0.63;0.63;;;15.30;99.90;;;;;;5115301;28;20257;-76
2022/08/15 04:22:36;;;;;;;1.92;0.68;;;15.40;99.90;;;;;;5115571;28;20456;-77
2022/08/15 04:25:20;;;;;;;1.00;1.00;;;15.40;99.90;;;;;;5115107;28;20023;-76
2022/08/15 04:27:51;;;;;;;0.57;0.40;;;15.50;99.90;;;;;;5115157;28;20034;-77
2022/08/15 04:30:17;;;;;;;0.47;0.40;;;15.50;99.90;;;;;;5115180;28;20031;-78
2022/08/15 04:32:43;;;;;;;0.63;0.63;;;15.50;99.90;;;;;;5114958;28;20051;-77
2022/08/15 04:35:11;;;;;;;0.28;0.28;;;15.50;99.90;;;;;;5096864;28;20031;-77
2022/08/15 04:37:39;;;;;;;1.25;0.55;;;15.60;99.90;;;;;;5114971;28;20117;-77
2022/08/15 04:40:07;;;;;;;0.32;0.32;;;15.50;99.90;;;;;;5115028;28;20016;-77
2022/08/15 04:42:33;;;;;;;7.20;2.00;;;15.50;99.90;;;;;;5114538;28;20027;-77
2022/08/15 04:44:58;;;;;;;3.40;1.45;;;15.50;99.90;;;;;;5096378;28;20019;-77
2022/08/15 04:47:24;;;;;;;0.52;0.52;;;15.50;99.90;;;;;;5114256;28;20552;-78
2022/08/15 04:49:50;;;;;;;1.00;0.95;;;15.50;99.90;;;;;;5114797;28;20415;-77
2022/08/15 04:52:18;;;;;;;0.60;0.40;;;15.50;99.90;;;;;;5114826;28;20033;-77
2022/08/15 04:54:45;;;;;;;0.20;0.20;;;15.50;99.90;;;;;;5114701;28;20035;-76
2022/08/15 04:57:12;;;;;;;0.43;0.43;;;15.50;99.90;;;;;;5096360;28;20065;-77
2022/08/15 04:59:39;;;;;;;0.77;0.77;;;15.40;99.90;;;;;;5114672;28;20054;-77
2022/08/15 05:02:08;;;;;;;1.65;1.40;;;15.40;99.90;;;;;;5114461;28;20126;-77
2022/08/15 05:04:34;;;;;;;0.57;0.57;;;15.50;99.90;;;;;;5096192;28;20026;-77
2022/08/15 05:07:00;;;;;;;1.35;1.25;;;15.50;99.90;;;;;;5114331;28;20023;-77
2022/08/15 05:09:26;;;;;;;0.57;0.57;;;15.50;99.90;;;;;;5120468;28;20051;-76
2022/08/15 05:11:51;;;;;;;0.45;0.45;;;15.50;99.90;;;;;;5096716;28;20032;-77
2022/08/15 05:14:18;;;;;;;1.33;0.65;;;15.50;99.90;;;;;;5114052;28;20039;-76
2022/08/15 05:16:44;;;;;;;0.65;0.65;;;15.50;99.90;;;;;;5096064;28;20023;-76
2022/08/15 05:19:09;;;;;;;0.50;0.50;;;15.70;99.90;;;;;;5114205;28;20372;-76
2022/08/15 05:21:36;;;;;;;0.50;0.50;;;15.70;99.90;;;;;;5114146;28;20028;-77
2022/08/15 05:24:02;;;;;;;1.40;0.50;;;15.80;99.90;;;;;;5113746;28;20465;-78
2022/08/15 05:26:28;;;;;;;0.50;0.50;;;15.90;99.90;;;;;;5113938;28;20109;-77
2022/08/15 05:28:53;;;;;;;0.30;0.30;;;16.00;99.90;;;;;;5096123;28;20418;-77
2022/08/15 05:31:19;;;;;;;0.28;0.28;;;16.10;99.90;;;;;;5114114;28;20024;-77
2022/08/15 05:33:46;;;;;;;0.28;0.28;;;16.30;99.90;;;;;;5113921;28;20028;-77
2022/08/15 05:36:14;;;;;;;0.52;0.52;;;16.40;99.90;;;;;;5113908;28;20020;-77
2022/08/15 05:38:46;;;;;;;0.55;0.55;;;16.60;99.90;;;;;;5113864;28;20026;-77
2022/08/15 05:41:20;;;;;;;0.28;0.28;;;16.80;99.90;;;;;;5113795;28;20536;-79
2022/08/15 05:44:19;;;;;;;0.68;0.30;;;16.90;99.90;;;;;;5095416;28;20062;-77
2022/08/15 05:47:04;;;;;;;0.20;0.20;;;17.00;99.90;;;;;;5095436;28;20022;-77
2022/08/15 05:49:50;;;;;;;0.57;0.57;;;17.10;99.90;;;;;;5113789;28;20465;-78
2022/08/15 05:52:37;;;;;;;0.63;0.63;;;17.10;99.90;;;;;;5095383;28;20053;-79
2022/08/15 05:55:19;;;;;;;1.65;0.63;;;17.20;99.90;;;;;;5095404;28;20039;-76
2022/08/15 05:58:12;;;;;;;0.40;0.40;;;17.30;99.90;;;;;;5113698;28;20032;-77
2022/08/15 06:00:44;;;;;;;0.10;0.10;;;17.40;99.90;;;;;;5115772;28;20125;-77
2022/08/15 06:03:17;;;;;;;0.43;0.40;;;17.60;99.90;;;;;;5117608;28;20068;-76
2022/08/15 06:05:48;;;;;;;0.30;0.30;;;17.80;99.90;;;;;;5099088;28;20028;-77
2022/08/15 06:08:28;;;;;;;1.25;0.20;;;17.90;99.90;;;;;;5099440;28;20035;-77
2022/08/15 06:11:15;;;;;;;0.30;0.30;;;18.00;99.90;;;;;;5099665;28;20023;-77
2022/08/15 06:13:50;;;;;;;0.20;0.20;;;18.00;99.90;;;;;;5116820;28;20044;-78
2022/08/15 06:16:25;;;;;;;0.30;0.25;;;18.10;99.90;;;;;;5117445;28;20034;-76
2022/08/15 06:18:52;;;;;;;0.10;0.10;;;18.00;99.90;;;;;;5117579;28;20019;-78
2022/08/15 06:21:19;;;;;;;0.85;0.85;;;18.10;99.90;;;;;;5099050;28;20027;-78
2022/08/15 06:24:13;;;;;;;0.20;0.20;;;18.20;99.90;;;;;;5117455;28;20012;-79
2022/08/15 06:26:54;;;;;;;1.05;0.88;;;18.30;99.90;;;;;;5117231;28;20093;-78
2022/08/15 06:29:35;;;;;;;0.30;0.30;;;18.30;99.90;;;;;;5117384;28;20118;-79
2022/08/15 06:32:09;;;;;;;0.35;0.35;;;18.40;99.90;;;;;;5117258;28;20031;-77
2022/08/15 06:34:41;;;;;;;0.13;0.13;;;18.30;99.90;;;;;;5117295;28;20019;-78
2022/08/15 06:37:29;;;;;;;1.65;0.35;;;18.20;99.90;;;;;;5117159;28;20043;-78
2022/08/15 06:40:12;;;;;;;0.10;0.10;;;18.20;99.90;;;;;;5117010;28;20023;-78
2022/08/15 06:42:43;;;;;;;1.15;0.20;;;18.20;99.90;;;;;;5116947;28;20027;-77
2022/08/15 06:45:21;;;;;;;0.85;0.25;;;18.10;99.90;;;;;;5116932;28;20024;-77
2022/08/15 06:47:50;;;;;;;0.43;0.30;;;18.00;99.90;;;;;;5098606;28;20019;-77
2022/08/15 06:50:23;;;;;;;0.82;0.40;;;18.00;99.90;;;;;;5098646;28;20027;-77
2022/08/15 06:52:57;;;;;;;0.63;0.63;;;18.10;99.90;;;;;;5098005;28;20063;-77
2022/08/15 06:55:39;;;;;;;0.43;0.43;;;18.10;99.90;;;;;;5097556;28;20036;-76
2022/08/15 06:58:14;;;;;;;1.30;0.98;;;18.10;99.90;;;;;;5115660;28;20069;-78
2022/08/15 07:01:07;;;;;;;0.65;0.65;;;18.10;99.90;;;;;;5115558;28;20023;-78
2022/08/15 07:04:01;;;;;;;0.10;0.10;;;18.20;99.90;;;;;;5097103;28;20020;-79
2022/08/15 07:06:38;;;;;;;0.25;0.25;;;19.00;99.90;;;;;;5115524;28;20076;-78
2022/08/15 07:09:34;;;;;;;0.45;0.45;;;19.60;99.90;;;;;;5115361;28;20024;-77
2022/08/15 07:12:13;;;;;;;0.50;0.30;;;20.20;99.90;;;;;;5096499;28;20035;-78
2022/08/15 07:14:47;;;;;;;0.32;0.32;;;20.60;99.90;;;;;;5115351;28;20487;-78
2022/08/15 07:17:22;;;;;;;0.00;0.00;;;20.70;99.90;;;;;;5115353;28;20380;-77
2022/08/15 07:19:48;;;;;;;0.47;0.47;;;20.60;99.90;;;;;;5115342;28;20536;-77
2022/08/15 07:22:13;;;;;;;0.52;0.50;;;20.30;99.90;;;;;;5114969;28;20032;-77
2022/08/15 07:24:52;;;;;;;1.45;0.68;;;20.30;99.90;;;;;;5115263;28;20064;-77
2022/08/15 07:27:24;;;;;;;1.02;1.02;;;20.50;99.90;;;;;;5115054;28;20020;-77
2022/08/15 07:30:05;;;;;;;0.68;0.68;;;20.60;99.90;;;;;;5114941;28;20026;-78
2022/08/15 07:32:50;;;;;;;7.38;1.17;;;20.70;99.90;;;;;;5114895;28;20054;-77
2022/08/15 07:35:24;;;;;;;0.50;0.50;;;20.80;99.90;;;;;;5096845;28;20084;-76
2022/08/15 07:37:58;;;;;;;0.20;0.20;;;20.30;99.90;;;;;;5115130;28;20054;-76
2022/08/15 07:40:26;;;;;;;1.65;0.70;;;20.00;99.90;;;;;;5115037;28;20495;-78
2022/08/15 07:42:52;;;;;;;5.78;0.98;;;19.80;99.90;;;;;;5114791;28;20055;-77
2022/08/15 07:45:18;;;;;;;0.93;0.60;;;19.90;99.90;;;;;;5114784;28;20479;-78
2022/08/15 07:48:03;;;;;;;0.10;0.10;;;20.00;99.90;;;;;;5114718;28;20092;-78
2022/08/15 07:50:40;;;;;;;1.92;0.93;;;20.30;99.90;;;;;;5114752;28;20077;-78
2022/08/15 07:53:20;;;;;;;1.20;1.20;;;20.40;99.90;;;;;;5073915;28;1155554;-78
2022/08/15 07:56:15;;;;;;;0.20;0.20;;;20.40;99.90;;;;;;5097368;28;20164;-78
2022/08/15 07:58:42;;;;;;;0.43;0.43;;;20.80;99.90;;;;;;5097222;28;20499;-79
2022/08/15 08:01:10;;;;;;;0.25;0.25;;;21.80;99.90;;;;;;5115426;28;20084;-78
2022/08/15 08:03:39;;;;;;;1.20;0.30;;;22.80;99.90;;;;;;5115488;28;20019;-77
2022/08/15 08:06:08;;;;;;;0.40;0.40;;;24.00;99.90;;;;;;5115384;28;20016;-78
2022/08/15 08:09:01;;;;;;;2.38;1.55;;;24.60;99.90;;;;;;5115261;28;20051;-78
2022/08/15 08:11:42;;;;;;;2.47;0.20;;;25.00;99.90;;;;;;5115571;28;20015;-78
2022/08/15 08:14:18;;;;;;;0.28;0.28;;;25.10;99.90;;;;;;5115326;28;20038;-77
2022/08/15 08:16:51;;;;;;;0.38;0.20;;;25.50;99.90;;;;;;5115250;28;20024;-78
2022/08/15 08:19:41;;;;;;;0.40;0.40;;;26.20;99.90;;;;;;5115142;28;20051;-78
2022/08/15 08:22:18;;;;;;;0.65;0.63;;;26.50;99.90;;;;;;5114879;28;20498;-78
2022/08/15 08:24:51;;;;;;;0.30;0.30;;;26.40;99.90;;;;;;5114767;28;20023;-78
2022/08/15 08:27:34;;;;;;;0.50;0.50;;;26.80;99.40;;;;;;5114953;28;20023;-78
2022/08/15 08:30:12;;;;;;;0.75;0.38;;;27.60;95.20;;;;;;5114844;28;20476;-79
2022/08/15 08:32:47;;;;;;;0.13;0.13;;;27.60;85.90;;;;;;5114853;28;20391;-77
2022/08/15 08:35:47;;;;;;;2.28;0.50;;;27.40;89.00;;;;;;5096331;28;20073;-78
2022/08/15 08:38:32;;;;;;;0.57;0.38;;;27.70;84.80;;;;;;5099311;28;20035;-78
2022/08/15 08:41:25;;;;;;;0.10;0.10;;;28.50;82.70;;;;;;5096310;28;20027;-78
2022/08/15 08:44:16;;;;;;;0.50;0.50;;;29.00;75.70;;;;;;5096421;28;20023;-77
2022/08/15 08:46:58;;;;;;;0.47;0.32;;;29.10;71.00;;;;;;5114726;28;20022;-77
2022/08/15 08:49:57;;;;;;;2.50;1.25;;;29.20;72.60;;;;;;5114662;28;20027;-77
2022/08/15 08:52:58;;;;;;;0.93;0.38;;;28.30;74.60;;;;;;5095907;28;20027;-76
2022/08/15 08:55:29;;;;;;;0.57;0.57;;;27.50;90.10;;;;;;5095933;28;20134;-76
2022/08/15 08:58:06;;;;;;;0.63;0.45;;;26.50;93.40;;;;;;5114128;28;20503;-77
2022/08/15 09:00:44;;;;;;;1.05;0.95;;;26.20;99.90;;;;;;5114166;28;20130;-76
2022/08/15 09:03:18;;;;;;;1.60;0.95;;;25.80;99.90;;;;;;5114287;28;20026;-76
2022/08/15 09:05:51;;;;;;;0.65;0.30;;;25.20;99.90;;;;;;5114204;28;20039;-76
2022/08/15 09:08:51;;;;;;;1.77;1.67;;;25.20;99.90;;;;;;5095919;28;20024;-76
2022/08/15 09:11:28;;;;;;;0.40;0.40;;;25.60;99.90;;;;;;5114221;28;20019;-76
2022/08/15 09:13:59;;;;;;;0.60;0.60;;;26.10;99.90;;;;;;5095700;28;20057;-76
2022/08/15 09:16:37;;;;;;;1.02;0.30;;;26.40;97.60;;;;;;5095745;28;20451;-76
2022/08/15 09:19:54;;;;;;;0.47;0.47;;;26.60;94.50;;;;;;5113874;28;20015;-77
2022/08/15 09:22:20;;;;;;;0.50;0.50;;;26.70;92.70;;;;;;5051768;28;20035;-76
2022/08/15 09:24:46;;;;;;;1.02;1.00;;;26.90;90.20;;;;;;5095664;28;20023;-77
2022/08/15 09:27:37;;;;;;;0.55;0.55;;;27.30;84.30;;;;;;5114110;28;20020;-77
2022/08/15 09:30:09;;;;;;;1.55;0.85;;;27.90;82.00;;;;;;5113605;28;20035;-77
2022/08/15 09:32:59;;;;;;;2.38;0.70;;;28.50;78.40;;;;;;5095543;28;20037;-76
2022/08/15 09:36:06;;;;;;;0.20;0.20;;;28.80;72.30;;;;;;5095410;28;20020;-76
2022/08/15 09:39:04;;;;;;;0.40;0.40;;;28.50;70.90;;;;;;5073524;28;20074;-77
2022/08/15 09:41:51;;;;;;;0.25;0.22;;;28.60;71.40;;;;;;5095249;28;20020;-79
2022/08/15 09:44:38;;;;;;;0.20;0.20;;;28.60;73.10;;;;;;5095532;28;20491;-77
2022/08/15 09:47:15;;;;;;;1.00;1.00;;;28.50;73.20;;;;;;5095574;28;20031;-78
2022/08/15 09:50:13;;;;;;;6.60;0.85;;;28.40;75.60;;;;;;5095233;28;20110;-76
2022/08/15 09:53:05;;;;;;;2.75;0.88;;;27.60;81.30;;;;;;5095086;28;20123;-77
2022/08/15 09:56:01;;;;;;;0.43;0.40;;;27.10;74.70;;;;;;5095042;28;20032;-76
2022/08/15 09:58:31;;;;;;;0.35;0.35;;;26.60;79.40;;;;;;5094080;28;20032;-76
2022/08/15 10:00:59;;;;;;;0.22;0.22;;;26.40;83.30;;;;;;5113438;28;20016;-76
2022/08/15 10:03:45;;;;;;;0.33;0.33;;;26.80;78.30;;;;;;5095219;28;20020;-76
2022/08/15 10:06:24;;;;;;;0.68;0.38;;;27.00;72.90;;;;;;5113394;28;20020;-76
2022/08/15 10:08:52;;;;;;;0.30;0.30;;;27.30;74.60;;;;;;5095235;28;20035;-77
2022/08/15 10:11:39;;;;;;;1.35;0.77;;;27.50;72.90;;;;;;5095230;28;20035;-76
2022/08/15 10:14:25;;;;;;;0.25;0.25;;;27.70;72.90;;;;;;5113347;28;20031;-76
2022/08/15 10:17:00;;;;;;;1.17;0.50;;;27.90;69.60;;;;;;5112994;28;20430;-76
2022/08/15 10:19:35;;;;;;;1.65;0.30;;;27.90;70.20;;;;;;5094925;28;20028;-76
2022/08/15 10:22:22;;;;;;;0.45;0.22;;;27.90;67.90;;;;;;5113121;28;20035;-77
2022/08/15 10:25:17;;;;;;;1.25;1.15;;;28.40;69.00;;;;;;5094998;28;20023;-77
2022/08/15 10:28:00;;;;;;;0.47;0.40;;;28.60;67.80;;;;;;5113426;28;20020;-79
2022/08/15 10:30:31;;;;;;;0.20;0.20;;;28.30;65.60;;;;;;5095133;28;20024;-78
2022/08/15 10:32:59;;;;;;;0.35;0.35;;;27.90;69.40;;;;;;5094958;28;20092;-78
2022/08/15 10:35:28;;;;;;;0.50;0.25;;;27.90;67.80;;;;;;5113200;28;20422;-78
2022/08/15 10:38:02;;;;;;;0.35;0.35;;;28.10;67.10;;;;;;5113173;28;20030;-78
2022/08/15 10:40:37;;;;;;;0.25;0.20;;;28.70;65.60;;;;;;5095187;28;20035;-79
2022/08/15 10:43:48;;;;;;;0.35;0.35;;;29.40;63.70;;;;;;5113209;28;20024;-77
2022/08/15 10:46:26;;;;;;;0.40;0.40;;;30.50;59.80;;;;;;5082796;28;20039;-77
2022/08/15 10:49:18;;;;;;;0.20;0.20;;;30.00;57.50;;;;;;5116854;28;20540;-77
2022/08/15 10:52:07;;;;;;;0.15;0.15;;;29.50;62.80;;;;;;5078456;28;20035;-79
2022/08/15 10:54:51;;;;;;;;;;;28.90;59.60;;;;;;5098644;28;20196;-77
2022/08/15 10:57:20;;;;;;;0.65;0.35;;;28.00;63.20;;;;;;5116732;28;19904;-78
2022/08/15 10:59:51;;;;;;;0.30;0.30;;;27.10;67.10;;;;;;5116602;28;20019;-76
2022/08/15 11:02:37;;;;;;;0.30;0.30;;;26.50;71.40;;;;;;5116668;28;20020;-78
2022/08/15 11:05:05;;;;;;;0.55;0.40;;;25.80;82.30;;;;;;5098448;28;20027;-78
2022/08/15 11:07:34;;;;;;;0.17;0.17;;;24.90;99.60;;;;;;5116720;28;20025;-81
2022/08/15 11:10:06;;;;;;;0.70;0.70;;;24.00;99.90;;;;;;5116952;28;20268;-83
2022/08/15 11:12:36;;;;;;;2.78;0.93;;;22.90;99.90;;;;;;5118689;28;20096;-82
2022/08/15 11:15:14;;;;;;;1.40;0.80;;;22.10;99.90;;;;;;5122391;28;20016;-80
2022/08/15 11:17:45;;;;;;;0.55;0.55;;;21.50;99.90;;;;;;5116541;28;20023;-79
2022/08/15 11:20:16;;;;;;;0.82;0.82;;;19.60;99.90;;;;;;5100589;28;20016;-76
2022/08/15 11:22:58;;;;;;;0.10;0.10;;;19.50;99.90;;;;;;5116782;28;20433;-76
2022/08/15 11:25:37;;;;;;;0.43;0.43;;;18.30;99.90;;;;;;5116605;28;20048;-76
2022/08/15 11:28:12;;;;;;;0.20;0.20;;;16.90;99.90;;;;;;5116546;28;20016;-77
2022/08/15 11:30:40;;;;;;;1.27;0.80;;;15.70;99.90;;;;;;5098374;28;20028;-76
2022/08/15 11:33:27;;;;;;;2.05;0.45;;;15.00;99.90;;;;;;5116466;28;20455;-77
2022/08/15 11:36:10;;;;;;;0.30;0.30;;;14.60;99.90;;;;;;5116385;28;20168;-76
2022/08/15 11:38:40;;;;;;;0.40;0.40;;;14.10;99.90;;;;;;5097951;28;20051;-76
2022/08/15 11:41:05;;;;;;;2.45;0.35;;;13.90;99.90;;;;;;5116154;28;20121;-78
2022/08/15 11:43:32;;;;;;;1.15;0.73;;;14.30;99.90;;;;;;5116167;28;20020;-77
2022/08/15 11:45:59;;;;;;;0.80;0.80;;;14.40;99.90;;;;;;5116119;28;20028;-76
2022/08/15 11:48:36;;;;;;;0.35;0.35;;;14.50;99.90;;;;;;5097906;28;20031;-77
2022/08/15 11:51:10;;;;;;;0.60;0.60;;;14.70;99.90;;;;;;5097745;28;20024;-77
2022/08/15 11:54:14;;;;;;;1.98;1.33;;;14.80;99.90;;;;;;5115833;28;20056;-77
2022/08/15 11:57:00;;;;;;;0.40;0.40;;;14.90;99.90;;;;;;5097595;28;20051;-77
2022/08/15 11:59:35;;;;;;;5.78;1.40;;;15.00;99.90;;;;;;5115185;28;20488;-76
2022/08/15 12:02:28;;;;;;;1.77;1.15;;;15.00;99.90;;;;;;5115664;28;20547;-77
2022/08/15 12:04:54;;;;;;;0.43;0.43;;;15.10;99.90;;;;;;5115695;28;20015;-77
2022/08/15 12:07:29;;;;;;;0.45;0.40;;;15.00;99.90;;;;;;5115751;28;20028;-76
2022/08/15 12:09:58;;;;;;;0.32;0.32;;;15.00;99.90;;;;;;5115595;28;20030;-77
2022/08/15 12:12:38;;;;;;;1.50;0.70;;;15.10;99.90;;;;;;5115667;28;20032;-76
2022/08/15 12:15:06;;;;;;;0.93;0.93;;;15.10;99.90;;;;;;5115460;28;20024;-76
2022/08/15 12:17:32;;;;;;;1.15;1.10;;;15.10;99.90;;;;;;5097253;28;20023;-77
2022/08/15 12:19:58;;;;;;;2.80;0.40;;;15.20;99.90;;;;;;5097112;28;20276;-76
2022/08/15 12:22:37;;;;;;;0.35;0.35;;;15.20;99.90;;;;;;5115439;28;20345;-77
2022/08/15 12:25:05;;;;;;;0.53;0.50;;;15.20;99.90;;;;;;5115407;28;20019;-77
2022/08/15 12:27:34;;;;;;;0.57;0.30;;;15.30;99.90;;;;;;5097078;28;20323;-77
2022/08/15 12:30:00;;;;;;;0.43;0.38;;;15.40;99.90;;;;;;5115289;28;20388;-77
2022/08/15 12:32:26;;;;;;;1.02;0.68;;;15.30;99.90;;;;;;5096854;28;20035;-76
2022/08/15 12:34:54;;;;;;;0.17;0.17;;;15.50;99.90;;;;;;5115172;28;20024;-77
2022/08/15 12:37:25;;;;;;;0.30;0.30;;;15.50;99.90;;;;;;5096781;28;20024;-77
2022/08/15 12:39:59;;;;;;;0.70;0.60;;;15.50;99.90;;;;;;5096744;28;20020;-76
2022/08/15 12:42:31;;;;;;;1.45;0.30;;;15.60;99.90;;;;;;5115089;28;20055;-76
2022/08/15 12:45:00;;;;;;;0.98;0.40;;;15.60;99.90;;;;;;5114918;28;20026;-77
2022/08/15 12:47:27;;;;;;;;;;;15.60;99.90;;;;;;5097098;28;20114;-77
2022/08/15 12:49:53;;;;;;;0.50;0.50;;;15.70;99.90;;;;;;5096514;28;19904;-76
2022/08/15 12:52:21;;;;;;;0.50;0.50;;;15.90;99.90;;;;;;5114885;28;20428;-77
2022/08/15 12:54:48;;;;;;;0.47;0.28;;;16.20;99.90;;;;;;5096495;28;20488;-76
2022/08/15 12:57:15;;;;;;;0.17;0.17;;;16.30;99.90;;;;;;5114694;28;20054;-76
2022/08/15 12:59:41;;;;;;;1.02;0.80;;;16.60;99.90;;;;;;5114535;28;20022;-77
2022/08/15 13:02:09;;;;;;;0.20;0.20;;;17.00;99.90;;;;;;5114471;28;20027;-77
2022/08/15 13:04:35;;;;;;;1.55;0.47;;;17.50;99.90;;;;;;5114309;28;20028;-77
2022/08/15 13:07:01;;;;;;;0.38;0.38;;;17.90;99.90;;;;;;5114128;28;20417;-77
2022/08/15 13:09:30;;;;;;;1.10;0.50;;;18.80;99.90;;;;;;5095508;28;20114;-77
2022/08/15 13:11:59;;;;;;;0.85;0.30;;;19.50;99.90;;;;;;5114012;28;20613;-78
2022/08/15 13:14:25;;;;;;;1.00;0.30;;;19.60;99.90;;;;;;5114074;28;20039;-77
2022/08/15 13:16:51;;;;;;;0.38;0.38;;;19.60;99.90;;;;;;5113959;28;20366;-78
2022/08/15 13:19:26;;;;;;;0.28;0.28;;;19.40;99.90;;;;;;5114061;28;20093;-78
2022/08/15 13:24:37;;;;;;;0.10;0.10;;;19.60;99.90;;;;;;5114256;28;20056;-77